Pagrindinis puslapis
METAR-TAF:

METAR-TAF

Oro uostai :

Kajanis, Suomija

platuma: 64-17N, ilguma: 027-41E, Aukštis: 143 m

Dabartinis oras

Ataskaita buvo paskelbta 13 minutes, ne 07:20 UTC
Vėjas 4 kt iš Vakarų
Temperatūra -13°C
Drėgmė 85%
Slėgis 992 hPa
Matomumas 10 km arba daugiau
Apsiniaukę ne aukštis 2000 ft
sniegas

METAR: EFKI 020720Z AUTO 28004KT 9999 -SN OVC020 M13/M15 Q0992

Laikas: 09:33 (07:33 UTC)

Prognozė

Ataskaita buvo paskelbta 2 valandos ir 5 minutes, ne 05:28 UTC
Prognozė galioja nuo 02 metu 06 UTC su 02 metu 15 UTC
Vėjas 4 kt iš Vakarų/Pietvakarių
Matomumas 10 km arba daugiau
Su prošvaistėmis ne aukštis 400 ft
Laikinai
nuo 02 metu 06 UTC su 02 metu 09 UTC
Matomumas: 6000 m
Su prošvaistėmis ne aukštis 2000 ft
sniegas
Tapsmas
nuo 02 metu 10 UTC su 02 metu 12 UTC
Išsisklaidę debesys ne aukštis 1500 ft

TAF: EFKI 020528Z 0206/0215 25004KT 9999 BKN004 TEMPO 0206/0209 6000 -SN BKN020 BECMG 0210/0212 SCT015

Orai ataskaitas ir orų prognozės (METAR, TAF).

turimą stotys yra geltonos ir raudonos taškus žemėlapyje.

Perkelti pele per norėdami pamatyti stoties vardą.

Tada spustelėkite, norėdami matyti oro stebėjimo ir prognozės.

Norėdami pakeisti žemėlapį: spustelėkite ant žalios mygtukų su juodo kryžiaus žemyn,; žalią mygtuką su brūkšneliu, jei norite nutolinti; arba žalių rodyklių gretimoms žemėlapius.


METAR-TAF: